TPC178 PAJN-PAFA
Flight info
| Callsign | TPC178 |
|---|---|
| Flight time | 1h 27m |
| Altitude | 40000 |
| Route | ASORT3 ASORT J541 BERGS ALUSO RDFLG HRDNG4 |
| Aircraft | C700/M-SBDGHM1RWXY/LB2 |
Departure
| Time | 2026-04-28 23:38 |
|---|---|
| Airport | Juneau International Airport (PAJN) |
Arrival
| Time | 2026-04-29 01:05 |
|---|---|
| Airport | Fairbanks International Airport (PAFA) |
| Time | Latitude | Longitude | Altitude | Speed | Heading |
|---|---|---|---|---|---|
| 2026-04-28 23:18 | 58.35923 | -134.59165 | 29 ft | 0 kts | 289° |
| 2026-04-28 23:36 | 58.35923 | -134.59169 | 29 ft | 3 kts | 282° |
| 2026-04-28 23:36 | 58.35915 | -134.59295 | 29 ft | 13 kts | 261° |
| 2026-04-28 23:36 | 58.35865 | -134.59415 | 30 ft | 9 kts | 251° |
| 2026-04-28 23:37 | 58.35876 | -134.59544 | 30 ft | 12 kts | 280° |
| 2026-04-28 23:37 | 58.35862 | -134.59619 | 30 ft | 0 kts | 222° |
| 2026-04-28 23:37 | 58.35857 | -134.59628 | 30 ft | 6 kts | 219° |
| 2026-04-28 23:37 | 58.35783 | -134.59644 | 31 ft | 12 kts | 148° |
| 2026-04-28 23:38 | 58.35755 | -134.59471 | 30 ft | 40 kts | 105° |
| 2026-04-28 23:38 | 58.35597 | -134.58325 | 74 ft | 130 kts | 104° |
| 2026-04-28 23:38 | 58.35323 | -134.56316 | 652 ft | 180 kts | 104° |
| 2026-04-28 23:38 | 58.34633 | -134.54302 | 1825 ft | 194 kts | 149° |
| 2026-04-28 23:39 | 58.33283 | -134.53968 | 3139 ft | 207 kts | 194° |
| 2026-04-28 23:39 | 58.32004 | -134.55559 | 3931 ft | 249 kts | 227° |
| 2026-04-28 23:39 | 58.31231 | -134.58700 | 4198 ft | 269 kts | 259° |
| 2026-04-28 23:39 | 58.31471 | -134.62146 | 4037 ft | 262 kts | 291° |
| 2026-04-28 23:40 | 58.32637 | -134.64671 | 4005 ft | 262 kts | 321° |
| 2026-04-28 23:40 | 58.34150 | -134.66738 | 4009 ft | 271 kts | 321° |
| 2026-04-28 23:40 | 58.35414 | -134.69310 | 3988 ft | 265 kts | 295° |
| 2026-04-28 23:40 | 58.35868 | -134.72635 | 3999 ft | 258 kts | 274° |
| 2026-04-28 23:41 | 58.35948 | -134.76049 | 4003 ft | 258 kts | 269° |
| 2026-04-28 23:41 | 58.35994 | -134.79543 | 5026 ft | 259 kts | 268° |
| 2026-04-28 23:41 | 58.36016 | -134.82955 | 6940 ft | 255 kts | 267° |
| 2026-04-28 23:41 | 58.36028 | -134.86265 | 8774 ft | 251 kts | 267° |
| 2026-04-28 23:42 | 58.36044 | -134.89613 | 10537 ft | 259 kts | 267° |
| 2026-04-28 23:42 | 58.36057 | -134.93227 | 11744 ft | 285 kts | 267° |
| 2026-04-28 23:42 | 58.36077 | -134.97039 | 13473 ft | 291 kts | 266° |
| 2026-04-28 23:42 | 58.36095 | -135.00971 | 14995 ft | 301 kts | 266° |
| 2026-04-28 23:43 | 58.36113 | -135.04994 | 16534 ft | 306 kts | 266° |
| 2026-04-28 23:43 | 58.36127 | -135.09119 | 18023 ft | 314 kts | 266° |
| 2026-04-28 23:43 | 58.36141 | -135.13271 | 19285 ft | 320 kts | 266° |
| 2026-04-28 23:43 | 58.36156 | -135.17551 | 20367 ft | 325 kts | 266° |
| 2026-04-28 23:44 | 58.36170 | -135.21895 | 21399 ft | 329 kts | 265° |
| 2026-04-28 23:44 | 58.36181 | -135.26292 | 22360 ft | 335 kts | 265° |
| 2026-04-28 23:44 | 58.36187 | -135.30591 | 23358 ft | 339 kts | 265° |
| 2026-04-28 23:44 | 58.36196 | -135.35056 | 24314 ft | 342 kts | 264° |
| 2026-04-28 23:45 | 58.36204 | -135.39622 | 25132 ft | 347 kts | 265° |
| 2026-04-28 23:45 | 58.36208 | -135.44246 | 25918 ft | 352 kts | 265° |
| 2026-04-28 23:45 | 58.36213 | -135.48947 | 26693 ft | 357 kts | 265° |
| 2026-04-28 23:45 | 58.36228 | -135.53719 | 27451 ft | 362 kts | 265° |
| 2026-04-28 23:46 | 58.36243 | -135.58502 | 28213 ft | 366 kts | 265° |
| 2026-04-28 23:46 | 58.36251 | -135.63378 | 29008 ft | 369 kts | 265° |
| 2026-04-28 23:46 | 58.36255 | -135.68313 | 29705 ft | 375 kts | 265° |
| 2026-04-28 23:46 | 58.36274 | -135.73315 | 30409 ft | 381 kts | 267° |
| 2026-04-28 23:47 | 58.36587 | -135.78396 | 30994 ft | 391 kts | 275° |
| 2026-04-28 23:47 | 58.37286 | -135.83470 | 31573 ft | 401 kts | 282° |
| 2026-04-28 23:47 | 58.38388 | -135.88433 | 32136 ft | 412 kts | 290° |
| 2026-04-28 23:47 | 58.39841 | -135.93132 | 32677 ft | 420 kts | 295° |
| 2026-04-28 23:48 | 58.41396 | -135.97891 | 33205 ft | 423 kts | 295° |
| 2026-04-28 23:48 | 58.42949 | -136.02715 | 33767 ft | 427 kts | 295° |
| 2026-04-28 23:48 | 58.44514 | -136.07599 | 34198 ft | 433 kts | 295° |
| 2026-04-28 23:48 | 58.46100 | -136.12530 | 34639 ft | 437 kts | 295° |
| 2026-04-28 23:49 | 58.47699 | -136.17497 | 35060 ft | 440 kts | 295° |
| 2026-04-28 23:49 | 58.49289 | -136.22459 | 35472 ft | 444 kts | 295° |
| 2026-04-28 23:49 | 58.51100 | -136.27331 | 35852 ft | 455 kts | 303° |
| 2026-04-28 23:49 | 58.53288 | -136.31755 | 36422 ft | 460 kts | 311° |
| 2026-04-28 23:50 | 58.55807 | -136.35620 | 36980 ft | 466 kts | 320° |
| 2026-04-28 23:50 | 58.57606 | -136.37893 | 37342 ft | 467 kts | 321° |
| 2026-04-28 23:50 | 58.60325 | -136.41303 | 37847 ft | 467 kts | 321° |
| 2026-04-28 23:50 | 58.63035 | -136.44749 | 38388 ft | 466 kts | 321° |
| 2026-04-28 23:51 | 58.65751 | -136.48211 | 38824 ft | 468 kts | 321° |
| 2026-04-28 23:51 | 58.68470 | -136.51660 | 39225 ft | 467 kts | 321° |
| 2026-04-28 23:51 | 58.71158 | -136.55068 | 39570 ft | 467 kts | 321° |
| 2026-04-28 23:51 | 58.73870 | -136.58530 | 39900 ft | 468 kts | 321° |
| 2026-04-28 23:52 | 58.76577 | -136.61997 | 40248 ft | 468 kts | 321° |
| 2026-04-28 23:52 | 58.79308 | -136.65499 | 40285 ft | 476 kts | 321° |
| 2026-04-28 23:52 | 58.84898 | -136.72670 | 40287 ft | 483 kts | 322° |
| 2026-04-28 23:53 | 58.90454 | -136.79829 | 40297 ft | 481 kts | 321° |
| 2026-04-28 23:53 | 58.96029 | -136.87050 | 40297 ft | 481 kts | 321° |
| 2026-04-28 23:54 | 59.01587 | -136.94270 | 40283 ft | 482 kts | 321° |
| 2026-04-28 23:54 | 59.07172 | -137.01558 | 40285 ft | 484 kts | 321° |
| 2026-04-28 23:55 | 59.12743 | -137.08854 | 40269 ft | 483 kts | 321° |
| 2026-04-28 23:55 | 59.18314 | -137.16181 | 40266 ft | 481 kts | 321° |
| 2026-04-28 23:56 | 59.23848 | -137.23487 | 40259 ft | 479 kts | 321° |
| 2026-04-28 23:56 | 59.29368 | -137.30806 | 40259 ft | 479 kts | 321° |
| 2026-04-28 23:57 | 59.34865 | -137.38123 | 40261 ft | 482 kts | 321° |
| 2026-04-28 23:57 | 59.40428 | -137.45554 | 40255 ft | 484 kts | 321° |
| 2026-04-28 23:58 | 59.46007 | -137.53041 | 40258 ft | 486 kts | 321° |
| 2026-04-28 23:58 | 59.51578 | -137.60543 | 40266 ft | 485 kts | 321° |
| 2026-04-28 23:59 | 59.57125 | -137.68047 | 40247 ft | 483 kts | 321° |
| 2026-04-28 23:59 | 59.62646 | -137.75546 | 40254 ft | 480 kts | 321° |
| 2026-04-29 00:00 | 59.68181 | -137.83099 | 40259 ft | 486 kts | 321° |
| 2026-04-29 00:00 | 59.73706 | -137.90655 | 40272 ft | 483 kts | 321° |
| 2026-04-29 00:01 | 59.79202 | -137.98217 | 40264 ft | 480 kts | 321° |
| 2026-04-29 00:01 | 59.84730 | -138.05849 | 40264 ft | 483 kts | 321° |
| 2026-04-29 00:02 | 59.90244 | -138.13491 | 40256 ft | 485 kts | 320° |
| 2026-04-29 00:02 | 59.95775 | -138.21191 | 40244 ft | 484 kts | 321° |
| 2026-04-29 00:03 | 60.01001 | -138.28494 | 40244 ft | 483 kts | 321° |
| 2026-04-29 00:03 | 60.06546 | -138.36277 | 40232 ft | 483 kts | 321° |
| 2026-04-29 00:04 | 60.12059 | -138.44045 | 40225 ft | 483 kts | 321° |
| 2026-04-29 00:04 | 60.17558 | -138.51827 | 40236 ft | 484 kts | 321° |
| 2026-04-29 00:05 | 60.23065 | -138.59650 | 40201 ft | 485 kts | 321° |
| 2026-04-29 00:05 | 60.28572 | -138.67512 | 40197 ft | 486 kts | 321° |
| 2026-04-29 00:06 | 60.34075 | -138.75392 | 40193 ft | 484 kts | 321° |
| 2026-04-29 00:06 | 60.39550 | -138.83275 | 40192 ft | 482 kts | 321° |
| 2026-04-29 00:07 | 60.44985 | -138.91128 | 40188 ft | 485 kts | 321° |
| 2026-04-29 00:07 | 60.50491 | -138.99119 | 40195 ft | 489 kts | 321° |
| 2026-04-29 00:08 | 60.56021 | -139.07176 | 40156 ft | 488 kts | 320° |
| 2026-04-29 00:08 | 60.61523 | -139.15233 | 40151 ft | 486 kts | 320° |
| 2026-04-29 00:09 | 60.67001 | -139.23287 | 40160 ft | 485 kts | 320° |
| 2026-04-29 00:09 | 60.72533 | -139.31453 | 40165 ft | 495 kts | 320° |
| 2026-04-29 00:10 | 60.78085 | -139.39681 | 40157 ft | 494 kts | 320° |
| 2026-04-29 00:10 | 60.83646 | -139.47967 | 40137 ft | 493 kts | 320° |
| 2026-04-29 00:11 | 60.89198 | -139.56269 | 40096 ft | 491 kts | 320° |
| 2026-04-29 00:12 | 60.97434 | -139.68661 | 40070 ft | 493 kts | 320° |
| 2026-04-29 00:12 | 61.02975 | -139.77034 | 40076 ft | 494 kts | 320° |
| 2026-04-29 00:13 | 61.08516 | -139.85460 | 40057 ft | 496 kts | 320° |
| 2026-04-29 00:13 | 61.14074 | -139.93933 | 40052 ft | 495 kts | 320° |
| 2026-04-29 00:14 | 61.19589 | -140.02387 | 40069 ft | 491 kts | 319° |
| 2026-04-29 00:14 | 61.25117 | -140.10903 | 39974 ft | 497 kts | 320° |
| 2026-04-29 00:15 | 61.30628 | -140.19419 | 39975 ft | 496 kts | 319° |
| 2026-04-29 00:15 | 61.36219 | -140.27901 | 39976 ft | 498 kts | 321° |
| 2026-04-29 00:16 | 61.41908 | -140.36205 | 39978 ft | 498 kts | 320° |
| 2026-04-29 00:16 | 61.47570 | -140.44534 | 39974 ft | 497 kts | 320° |
| 2026-04-29 00:17 | 61.53198 | -140.52815 | 39934 ft | 496 kts | 320° |
| 2026-04-29 00:17 | 61.58857 | -140.61213 | 39939 ft | 497 kts | 320° |
| 2026-04-29 00:18 | 61.64485 | -140.69578 | 39944 ft | 498 kts | 320° |
| 2026-04-29 00:18 | 61.70150 | -140.78051 | 39951 ft | 499 kts | 320° |
| 2026-04-29 00:19 | 61.75817 | -140.86558 | 39946 ft | 500 kts | 320° |
| 2026-04-29 00:19 | 61.81444 | -140.95047 | 39966 ft | 498 kts | 320° |
| 2026-04-29 00:20 | 61.87078 | -141.03586 | 39933 ft | 496 kts | 320° |
| 2026-04-29 00:20 | 61.92695 | -141.12142 | 39934 ft | 497 kts | 320° |
| 2026-04-29 00:21 | 61.98309 | -141.20726 | 39964 ft | 497 kts | 320° |
| 2026-04-29 00:21 | 62.03900 | -141.29322 | 39948 ft | 500 kts | 320° |
| 2026-04-29 00:22 | 62.09559 | -141.38055 | 39953 ft | 502 kts | 320° |
| 2026-04-29 00:22 | 62.15211 | -141.46824 | 39943 ft | 499 kts | 319° |
| 2026-04-29 00:23 | 62.20769 | -141.55481 | 39930 ft | 493 kts | 319° |
| 2026-04-29 00:23 | 62.26319 | -141.64179 | 39924 ft | 494 kts | 319° |
| 2026-04-29 00:24 | 62.31893 | -141.72947 | 39926 ft | 499 kts | 319° |
| 2026-04-29 00:24 | 62.37465 | -141.81750 | 39928 ft | 499 kts | 319° |
| 2026-04-29 00:25 | 62.43058 | -141.90633 | 39919 ft | 497 kts | 319° |
| 2026-04-29 00:25 | 62.48577 | -141.99440 | 39901 ft | 495 kts | 319° |
| 2026-04-29 00:26 | 62.54113 | -142.08314 | 39897 ft | 494 kts | 319° |
| 2026-04-29 00:26 | 62.59641 | -142.17217 | 39897 ft | 494 kts | 319° |
| 2026-04-29 00:27 | 62.65151 | -142.26136 | 39897 ft | 494 kts | 319° |
| 2026-04-29 00:27 | 62.70659 | -142.35091 | 39891 ft | 493 kts | 319° |
| 2026-04-29 00:28 | 62.76134 | -142.44038 | 39892 ft | 493 kts | 319° |
| 2026-04-29 00:28 | 62.81612 | -142.53027 | 39901 ft | 490 kts | 318° |
| 2026-04-29 00:29 | 62.87057 | -142.62012 | 39913 ft | 490 kts | 318° |
| 2026-04-29 00:29 | 62.92484 | -142.71007 | 39916 ft | 493 kts | 318° |
| 2026-04-29 00:30 | 62.97976 | -142.80151 | 39921 ft | 496 kts | 318° |
| 2026-04-29 00:30 | 63.03434 | -142.89282 | 39919 ft | 492 kts | 318° |
| 2026-04-29 00:31 | 63.08878 | -142.98440 | 39919 ft | 494 kts | 318° |
| 2026-04-29 00:31 | 63.14364 | -143.07708 | 39923 ft | 497 kts | 318° |
| 2026-04-29 00:32 | 63.19823 | -143.16972 | 39914 ft | 494 kts | 318° |
| 2026-04-29 00:32 | 63.25262 | -143.26255 | 39910 ft | 491 kts | 318° |
| 2026-04-29 00:33 | 63.30696 | -143.35574 | 39881 ft | 494 kts | 318° |
| 2026-04-29 00:33 | 63.36121 | -143.44918 | 39908 ft | 497 kts | 318° |
| 2026-04-29 00:34 | 63.41604 | -143.54411 | 39886 ft | 497 kts | 318° |
| 2026-04-29 00:34 | 63.47022 | -143.63838 | 39867 ft | 495 kts | 318° |
| 2026-04-29 00:35 | 63.52451 | -143.73331 | 39870 ft | 494 kts | 318° |
| 2026-04-29 00:35 | 63.57812 | -143.82934 | 39875 ft | 491 kts | 314° |
| 2026-04-29 00:36 | 63.61486 | -143.92528 | 39875 ft | 484 kts | 301° |
| 2026-04-29 00:36 | 63.66014 | -144.06871 | 39864 ft | 483 kts | 301° |
| 2026-04-29 00:37 | 63.69259 | -144.17179 | 39453 ft | 486 kts | 301° |
| 2026-04-29 00:37 | 63.71204 | -144.23392 | 38824 ft | 482 kts | 301° |
| 2026-04-29 00:37 | 63.73126 | -144.29536 | 38139 ft | 474 kts | 300° |
| 2026-04-29 00:37 | 63.75009 | -144.35573 | 37498 ft | 464 kts | 300° |
| 2026-04-29 00:38 | 63.76857 | -144.41526 | 36897 ft | 459 kts | 300° |
| 2026-04-29 00:38 | 63.78688 | -144.47449 | 36304 ft | 462 kts | 301° |
| 2026-04-29 00:38 | 63.80526 | -144.53404 | 35692 ft | 471 kts | 301° |
| 2026-04-29 00:38 | 63.82416 | -144.59529 | 35050 ft | 476 kts | 301° |
| 2026-04-29 00:39 | 63.84317 | -144.65699 | 34414 ft | 476 kts | 300° |
| 2026-04-29 00:39 | 63.86208 | -144.71861 | 33780 ft | 474 kts | 300° |
| 2026-04-29 00:39 | 63.88084 | -144.78002 | 33112 ft | 472 kts | 300° |
| 2026-04-29 00:39 | 63.89961 | -144.84164 | 32482 ft | 475 kts | 300° |
| 2026-04-29 00:40 | 63.91821 | -144.90286 | 31857 ft | 479 kts | 300° |
| 2026-04-29 00:40 | 63.93723 | -144.96553 | 31221 ft | 481 kts | 300° |
| 2026-04-29 00:40 | 63.95622 | -145.02824 | 30586 ft | 481 kts | 300° |
| 2026-04-29 00:40 | 63.97525 | -145.09131 | 29945 ft | 479 kts | 301° |
| 2026-04-29 00:41 | 63.99380 | -145.15293 | 29268 ft | 473 kts | 301° |
| 2026-04-29 00:41 | 64.01226 | -145.21443 | 28654 ft | 466 kts | 301° |
| 2026-04-29 00:41 | 64.03045 | -145.27531 | 28046 ft | 463 kts | 301° |
| 2026-04-29 00:41 | 64.04860 | -145.33621 | 27443 ft | 461 kts | 301° |
| 2026-04-29 00:42 | 64.06662 | -145.39678 | 26838 ft | 459 kts | 301° |
| 2026-04-29 00:42 | 64.08446 | -145.45679 | 26242 ft | 454 kts | 301° |
| 2026-04-29 00:42 | 64.10187 | -145.51561 | 25659 ft | 450 kts | 301° |
| 2026-04-29 00:42 | 64.11934 | -145.57484 | 25060 ft | 446 kts | 301° |
| 2026-04-29 00:43 | 64.13662 | -145.63356 | 24489 ft | 443 kts | 301° |
| 2026-04-29 00:43 | 64.15380 | -145.69206 | 23907 ft | 440 kts | 301° |
| 2026-04-29 00:43 | 64.17084 | -145.75022 | 23315 ft | 438 kts | 301° |
| 2026-04-29 00:43 | 64.18780 | -145.80824 | 22695 ft | 433 kts | 301° |
| 2026-04-29 00:44 | 64.20447 | -145.86546 | 22130 ft | 428 kts | 301° |
| 2026-04-29 00:44 | 64.22067 | -145.92123 | 21576 ft | 423 kts | 301° |
| 2026-04-29 00:44 | 64.23702 | -145.97762 | 21017 ft | 420 kts | 301° |
| 2026-04-29 00:44 | 64.25324 | -146.03369 | 20458 ft | 418 kts | 301° |
| 2026-04-29 00:45 | 64.26911 | -146.08868 | 19912 ft | 415 kts | 301° |
| 2026-04-29 00:45 | 64.28503 | -146.14403 | 19360 ft | 412 kts | 301° |
| 2026-04-29 00:45 | 64.30080 | -146.19901 | 18816 ft | 408 kts | 301° |
| 2026-04-29 00:45 | 64.31579 | -146.25428 | 18286 ft | 404 kts | 299° |
| 2026-04-29 00:46 | 64.33086 | -146.30899 | 17704 ft | 401 kts | 300° |
| 2026-04-29 00:46 | 64.34557 | -146.36209 | 17196 ft | 394 kts | 300° |
| 2026-04-29 00:46 | 64.36000 | -146.41517 | 16882 ft | 387 kts | 299° |
| 2026-04-29 00:46 | 64.37434 | -146.46839 | 16386 ft | 391 kts | 299° |
| 2026-04-29 00:47 | 64.38873 | -146.52142 | 15873 ft | 386 kts | 299° |
| 2026-04-29 00:47 | 64.40294 | -146.57365 | 15378 ft | 382 kts | 299° |
| 2026-04-29 00:47 | 64.41696 | -146.62565 | 14870 ft | 378 kts | 298° |
| 2026-04-29 00:47 | 64.43080 | -146.67715 | 14374 ft | 375 kts | 298° |
| 2026-04-29 00:48 | 64.44452 | -146.72822 | 13885 ft | 372 kts | 298° |
| 2026-04-29 00:48 | 64.45793 | -146.77821 | 13383 ft | 367 kts | 298° |
| 2026-04-29 00:48 | 64.47110 | -146.82730 | 12898 ft | 347 kts | 297° |
| 2026-04-29 00:48 | 64.48347 | -146.87355 | 12463 ft | 328 kts | 297° |
| 2026-04-29 00:49 | 64.49515 | -146.91750 | 12051 ft | 312 kts | 297° |
| 2026-04-29 00:49 | 64.50630 | -146.95953 | 11678 ft | 299 kts | 297° |
| 2026-04-29 00:49 | 64.51700 | -147.00002 | 11277 ft | 290 kts | 297° |
| 2026-04-29 00:49 | 64.53028 | -147.03554 | 10521 ft | 299 kts | 321° |
| 2026-04-29 00:50 | 64.54925 | -147.05532 | 9986 ft | 299 kts | 340° |
| 2026-04-29 00:50 | 64.56933 | -147.06726 | 9411 ft | 296 kts | 343° |
| 2026-04-29 00:50 | 64.58916 | -147.07735 | 8789 ft | 293 kts | 345° |
| 2026-04-29 00:50 | 64.60895 | -147.08687 | 8207 ft | 289 kts | 345° |
| 2026-04-29 00:51 | 64.62859 | -147.09610 | 7635 ft | 285 kts | 345° |
| 2026-04-29 00:51 | 64.64798 | -147.10486 | 7072 ft | 282 kts | 345° |
| 2026-04-29 00:51 | 64.66714 | -147.11336 | 6534 ft | 279 kts | 345° |
| 2026-04-29 00:51 | 64.68604 | -147.12174 | 5968 ft | 276 kts | 345° |
| 2026-04-29 00:52 | 64.70474 | -147.12973 | 5597 ft | 267 kts | 345° |
| 2026-04-29 00:52 | 64.72224 | -147.13689 | 5631 ft | 246 kts | 346° |
| 2026-04-29 00:52 | 64.73858 | -147.14350 | 5606 ft | 232 kts | 345° |
| 2026-04-29 00:52 | 64.75414 | -147.14957 | 5417 ft | 227 kts | 345° |
| 2026-04-29 00:53 | 64.76977 | -147.15579 | 5078 ft | 227 kts | 345° |
| 2026-04-29 00:53 | 64.78529 | -147.16178 | 4827 ft | 224 kts | 346° |
| 2026-04-29 00:53 | 64.80069 | -147.16751 | 4530 ft | 223 kts | 345° |
| 2026-04-29 00:53 | 64.81604 | -147.17330 | 4299 ft | 219 kts | 345° |
| 2026-04-29 00:54 | 64.83095 | -147.17863 | 4302 ft | 215 kts | 346° |
| 2026-04-29 00:54 | 64.84580 | -147.18395 | 4302 ft | 221 kts | 346° |
| 2026-04-29 00:54 | 64.86106 | -147.18973 | 4294 ft | 223 kts | 345° |
| 2026-04-29 00:54 | 64.87636 | -147.19552 | 4294 ft | 221 kts | 345° |
| 2026-04-29 00:55 | 64.89158 | -147.20119 | 4287 ft | 219 kts | 345° |
| 2026-04-29 00:55 | 64.90652 | -147.20659 | 4283 ft | 220 kts | 346° |
| 2026-04-29 00:55 | 64.92160 | -147.21228 | 4282 ft | 219 kts | 345° |
| 2026-04-29 00:55 | 64.93684 | -147.21798 | 4297 ft | 225 kts | 346° |
| 2026-04-29 00:56 | 64.95233 | -147.22414 | 4287 ft | 225 kts | 346° |
| 2026-04-29 00:56 | 64.96770 | -147.23032 | 4293 ft | 224 kts | 345° |
| 2026-04-29 00:56 | 64.98304 | -147.23646 | 4290 ft | 225 kts | 346° |
| 2026-04-29 00:56 | 64.99841 | -147.24334 | 4300 ft | 223 kts | 339° |
| 2026-04-29 00:57 | 65.01184 | -147.25970 | 4282 ft | 210 kts | 317° |
| 2026-04-29 00:57 | 65.02076 | -147.28449 | 4284 ft | 190 kts | 300° |
| 2026-04-29 00:57 | 65.02783 | -147.30957 | 4268 ft | 182 kts | 299° |
| 2026-04-29 00:57 | 65.03422 | -147.33441 | 4217 ft | 174 kts | 288° |
| 2026-04-29 00:58 | 65.03653 | -147.36121 | 4289 ft | 166 kts | 275° |
| 2026-04-29 00:58 | 65.03697 | -147.38916 | 4299 ft | 172 kts | 262° |
| 2026-04-29 00:58 | 65.03496 | -147.41736 | 4310 ft | 175 kts | 258° |
| 2026-04-29 00:58 | 65.03270 | -147.44546 | 4287 ft | 171 kts | 251° |
| 2026-04-29 00:59 | 65.02612 | -147.46825 | 4294 ft | 169 kts | 227° |
| 2026-04-29 00:59 | 65.01757 | -147.48639 | 4289 ft | 164 kts | 223° |
| 2026-04-29 00:59 | 65.00886 | -147.50351 | 4284 ft | 161 kts | 221° |
| 2026-04-29 00:59 | 65.00025 | -147.52005 | 4320 ft | 155 kts | 222° |
| 2026-04-29 01:00 | 64.99160 | -147.53613 | 4300 ft | 160 kts | 220° |
| 2026-04-29 01:00 | 64.98282 | -147.55265 | 4295 ft | 162 kts | 222° |
| 2026-04-29 01:00 | 64.97385 | -147.56916 | 4159 ft | 166 kts | 220° |
| 2026-04-29 01:00 | 64.96483 | -147.58604 | 3929 ft | 162 kts | 222° |
| 2026-04-29 01:01 | 64.95622 | -147.60206 | 3702 ft | 153 kts | 220° |
| 2026-04-29 01:01 | 64.94795 | -147.61729 | 3501 ft | 150 kts | 220° |
| 2026-04-29 01:01 | 64.93984 | -147.63254 | 3303 ft | 150 kts | 221° |
| 2026-04-29 01:01 | 64.93156 | -147.64784 | 3091 ft | 151 kts | 220° |
| 2026-04-29 01:02 | 64.92337 | -147.66298 | 2889 ft | 149 kts | 220° |
| 2026-04-29 01:02 | 64.91522 | -147.67807 | 2688 ft | 149 kts | 220° |
| 2026-04-29 01:02 | 64.90710 | -147.69315 | 2521 ft | 138 kts | 220° |
| 2026-04-29 01:02 | 64.89934 | -147.70759 | 2213 ft | 152 kts | 220° |
| 2026-04-29 01:03 | 64.89152 | -147.72206 | 2082 ft | 143 kts | 218° |
| 2026-04-29 01:03 | 64.88377 | -147.73640 | 1871 ft | 141 kts | 218° |
| 2026-04-29 01:03 | 64.87622 | -147.75030 | 1665 ft | 134 kts | 217° |
| 2026-04-29 01:03 | 64.86865 | -147.76418 | 1555 ft | 136 kts | 216° |
| 2026-04-29 01:04 | 64.86114 | -147.77828 | 1371 ft | 134 kts | 217° |
| 2026-04-29 01:04 | 64.85409 | -147.79089 | 1178 ft | 124 kts | 217° |
| 2026-04-29 01:04 | 64.84761 | -147.80354 | 1028 ft | 120 kts | 222° |
| 2026-04-29 01:04 | 64.84113 | -147.81443 | 848 ft | 112 kts | 211° |
| 2026-04-29 01:05 | 64.83501 | -147.82529 | 725 ft | 111 kts | 217° |
| 2026-04-29 01:05 | 64.82920 | -147.83674 | 518 ft | 107 kts | 220° |
| 2026-04-29 01:05 | 64.82393 | -147.84687 | 427 ft | 81 kts | 213° |
| 2026-04-29 01:05 | 64.82079 | -147.85247 | 429 ft | 36 kts | 217° |
| 2026-04-29 01:06 | 64.81937 | -147.85550 | 429 ft | 20 kts | 243° |
| 2026-04-29 01:06 | 64.81975 | -147.85767 | 426 ft | 17 kts | 306° |
| 2026-04-29 01:06 | 64.82030 | -147.85942 | 425 ft | 9 kts | 301° |
| 2026-04-29 01:06 | 64.82004 | -147.86068 | 430 ft | 11 kts | 223° |
| 2026-04-29 01:07 | 64.81973 | -147.86131 | 430 ft | 0 kts | 218° |